Time;durP1;ratioP1;P1;durP2;ratioP2;P2;SDS_P1;SDS_P2;PMS_P1;PMS_P2;Temp;Humidity;BMP_temperature;BMP_pressure;BME280_temperature;BME280_humidity;BME280_pressure;Samples;Min_cycle;Max_cycle;Signal;HPM_P1;HPM_P2
2021/06/01 00:01:13;;;;;;;2.13;1.90;;;13.00;66.10;;;;;;5138190;27;20980;-81
2021/06/01 00:03:39;;;;;;;2.50;2.40;;;12.90;66.80;;;;;;5138517;27;20442;-81
2021/06/01 00:06:05;;;;;;;3.10;2.90;;;12.80;67.30;;;;;;5138472;27;20469;-81
2021/06/01 00:08:32;;;;;;;2.43;2.33;;;12.70;67.80;;;;;;5138427;27;20913;-81
2021/06/01 00:11:00;;;;;;;3.00;2.70;;;12.70;67.60;;;;;;5138303;27;20874;-81
2021/06/01 00:13:26;;;;;;;3.37;2.53;;;12.60;67.40;;;;;;5137954;27;20992;-81
2021/06/01 00:15:52;;;;;;;2.60;2.40;;;12.60;67.80;;;;;;5138258;27;20449;-81
2021/06/01 00:18:18;;;;;;;2.50;2.30;;;12.50;68.20;;;;;;5138226;27;20442;-81
2021/06/01 00:20:45;;;;;;;2.90;2.70;;;12.50;68.50;;;;;;5137775;27;21007;-81
2021/06/01 00:23:11;;;;;;;2.30;2.10;;;12.50;68.90;;;;;;5137823;27;20440;-81
2021/06/01 00:25:37;;;;;;;2.33;2.13;;;12.40;68.90;;;;;;5138108;27;20434;-81
2021/06/01 00:28:05;;;;;;;2.30;2.20;;;12.40;69.10;;;;;;5137833;27;20537;-81
2021/06/01 00:30:31;;;;;;;2.53;2.40;;;12.30;69.20;;;;;;5137906;27;20473;-81
2021/06/01 00:32:57;;;;;;;2.60;2.50;;;12.20;69.80;;;;;;5137846;27;20482;-81
2021/06/01 00:35:24;;;;;;;2.97;2.70;;;12.20;70.40;;;;;;5137624;27;20495;-81
2021/06/01 00:37:50;;;;;;;3.33;2.83;;;12.10;70.80;;;;;;5137875;27;20438;-81
2021/06/01 00:40:16;;;;;;;2.90;2.70;;;12.10;70.80;;;;;;5137732;27;20531;-81
2021/06/01 00:42:43;;;;;;;2.53;2.33;;;12.10;71.70;;;;;;5137777;27;20434;-81
2021/06/01 00:45:17;;;;;;;3.07;2.77;;;12.00;71.60;;;;;;5137718;27;20457;-81
2021/06/01 00:47:44;;;;;;;2.60;2.47;;;11.90;72.10;;;;;;5137413;27;21048;-81
2021/06/01 00:50:12;;;;;;;2.60;2.40;;;11.90;72.20;;;;;;5137569;27;20466;-81
2021/06/01 00:52:38;;;;;;;2.60;2.40;;;11.80;72.60;;;;;;5138333;27;20473;-81
2021/06/01 00:55:06;;;;;;;3.00;2.80;;;11.80;72.40;;;;;;5137524;27;20495;-81
2021/06/01 00:57:32;;;;;;;2.77;2.57;;;11.80;72.70;;;;;;5137504;27;20984;-81
2021/06/01 00:59:59;;;;;;;4.07;2.30;;;11.70;72.60;;;;;;5137348;27;20449;-81
2021/06/01 01:02:27;;;;;;;3.13;2.83;;;11.70;73.00;;;;;;5137373;27;20442;-81
2021/06/01 01:04:54;;;;;;;3.60;2.53;;;11.70;73.30;;;;;;5137374;27;20469;-81
2021/06/01 01:07:34;;;;;;;2.53;2.33;;;11.60;73.50;;;;;;5137359;27;20442;-81
2021/06/01 01:10:00;;;;;;;2.83;2.63;;;11.70;73.20;;;;;;5136084;27;20440;-81
2021/06/01 01:12:31;;;;;;;2.53;2.33;;;11.70;72.60;;;;;;5137088;27;20477;-81
2021/06/01 01:15:01;;;;;;;3.20;2.53;;;11.80;70.90;;;;;;5137180;27;20449;-81
2021/06/01 01:17:36;;;;;;;2.67;2.47;;;11.80;70.10;;;;;;5137074;27;20541;-81
2021/06/01 01:20:10;;;;;;;2.83;2.63;;;11.90;69.20;;;;;;5136740;27;20426;-81
2021/06/01 01:22:39;;;;;;;2.40;2.30;;;12.00;68.80;;;;;;5137078;27;20418;-81
2021/06/01 01:25:12;;;;;;;2.50;2.30;;;12.10;68.90;;;;;;5136926;27;20442;-81
2021/06/01 01:28:01;;;;;;;2.33;2.20;;;12.10;68.10;;;;;;5136691;27;20497;-81
2021/06/01 01:30:31;;;;;;;3.27;2.80;;;12.20;68.40;;;;;;5134606;27;20478;-81
2021/06/01 01:33:15;;;;;;;2.63;2.43;;;12.20;68.30;;;;;;5136676;27;20497;-81
2021/06/01 01:35:43;;;;;;;3.20;3.00;;;12.20;70.10;;;;;;5136822;27;20446;-81
2021/06/01 01:38:11;;;;;;;2.60;2.40;;;12.20;71.00;;;;;;5136726;27;20472;-81
2021/06/01 01:40:38;;;;;;;3.13;2.60;;;12.10;71.30;;;;;;5136817;27;20470;-81
2021/06/01 01:43:10;;;;;;;2.40;2.20;;;12.10;69.50;;;;;;5136617;27;20446;-81
2021/06/01 01:45:40;;;;;;;2.83;2.63;;;12.00;68.90;;;;;;5136625;27;20442;-81
2021/06/01 01:51:11;;;;;;;3.03;2.67;;;12.00;69.90;;;;;;5136200;27;20802;-81
2021/06/01 01:53:40;;;;;;;2.40;2.30;;;12.10;71.00;;;;;;5136372;27;20556;-81
2021/06/01 01:56:06;;;;;;;2.50;2.30;;;12.00;71.90;;;;;;5136366;27;20450;-81
2021/06/01 01:58:33;;;;;;;2.77;2.53;;;11.90;72.90;;;;;;5136047;27;20434;-81
2021/06/01 02:01:00;;;;;;;2.80;2.60;;;11.90;73.40;;;;;;5136197;27;20466;-81
2021/06/01 02:03:27;;;;;;;2.50;2.40;;;11.80;74.30;;;;;;5135905;27;20940;-81
2021/06/01 02:05:54;;;;;;;2.57;2.37;;;11.60;75.30;;;;;;5135834;27;21021;-81
2021/06/01 02:08:20;;;;;;;2.57;2.30;;;11.50;75.90;;;;;;5136114;27;20837;-81
2021/06/01 02:10:48;;;;;;;2.87;2.67;;;11.40;76.40;;;;;;5136053;27;20462;-81
2021/06/01 02:13:14;;;;;;;2.47;2.37;;;11.30;76.80;;;;;;5135994;27;20478;-81
2021/06/01 02:15:40;;;;;;;2.80;2.60;;;11.30;77.10;;;;;;5135980;27;20446;-81
2021/06/01 02:18:06;;;;;;;3.03;2.83;;;11.20;77.20;;;;;;5136450;27;20450;-81
2021/06/01 02:20:34;;;;;;;2.93;2.73;;;11.20;77.80;;;;;;5135571;27;20458;-81
2021/06/01 02:25:52;;;;;;;2.83;2.57;;;11.10;78.40;;;;;;5135867;27;20422;-81
2021/06/01 02:28:26;;;;;;;3.53;2.80;;;11.10;78.50;;;;;;5135571;27;20481;-81
2021/06/01 02:30:56;;;;;;;3.17;2.97;;;11.10;78.50;;;;;;5135650;27;20462;-81
2021/06/01 02:33:24;;;;;;;5.53;3.27;;;11.10;78.60;;;;;;5135239;27;21057;-81
2021/06/01 02:35:53;;;;;;;4.37;2.80;;;11.00;78.60;;;;;;5135569;27;20485;-81
2021/06/01 02:38:20;;;;;;;4.27;3.20;;;11.00;78.40;;;;;;5135556;27;20450;-81
2021/06/01 02:40:48;;;;;;;3.80;3.50;;;10.90;79.50;;;;;;5135388;27;20466;-81
2021/06/01 02:43:15;;;;;;;6.00;3.60;;;10.90;80.00;;;;;;5135578;27;20453;-81
2021/06/01 02:45:43;;;;;;;3.23;2.93;;;10.80;80.60;;;;;;5135428;27;20813;-81
2021/06/01 02:48:12;;;;;;;3.10;2.90;;;10.80;80.80;;;;;;5135053;27;20944;-81
2021/06/01 02:50:40;;;;;;;2.80;2.60;;;10.80;81.20;;;;;;5134892;27;21041;-81
2021/06/01 02:53:09;;;;;;;2.80;2.60;;;10.70;81.70;;;;;;5135144;27;20477;-81
2021/06/01 02:55:36;;;;;;;4.40;3.50;;;10.70;82.10;;;;;;5135168;27;20491;-81
2021/06/01 02:58:06;;;;;;;3.10;2.90;;;10.70;82.70;;;;;;5135401;27;20445;-77
2021/06/01 03:00:32;;;;;;;4.30;3.90;;;10.70;83.40;;;;;;5135227;27;20533;-77
2021/06/01 03:02:58;;;;;;;3.40;3.10;;;10.60;83.90;;;;;;5135219;27;20443;-81
2021/06/01 03:05:29;;;;;;;3.10;2.80;;;10.60;84.50;;;;;;5134697;27;20944;-81
2021/06/01 03:08:05;;;;;;;3.40;3.10;;;10.50;85.10;;;;;;5135048;27;20430;-81
2021/06/01 03:10:33;;;;;;;2.90;2.70;;;10.50;85.30;;;;;;5134902;27;20461;-82
2021/06/01 03:13:00;;;;;;;4.27;3.23;;;10.50;86.30;;;;;;5134823;27;20474;-81
2021/06/01 03:15:28;;;;;;;3.50;3.13;;;10.50;87.50;;;;;;5134838;27;20533;-82
2021/06/01 03:17:54;;;;;;;3.17;2.90;;;10.50;87.60;;;;;;5134809;27;20442;-81
2021/06/01 03:20:21;;;;;;;2.90;2.70;;;10.50;88.70;;;;;;5134701;27;20470;-81
2021/06/01 03:22:48;;;;;;;3.43;2.97;;;10.50;89.10;;;;;;5134733;27;20475;-81
2021/06/01 03:25:14;;;;;;;2.77;2.60;;;10.50;89.10;;;;;;5134709;27;20814;-81
2021/06/01 03:27:42;;;;;;;3.63;3.03;;;10.50;89.60;;;;;;5134361;27;20852;-81
2021/06/01 03:30:10;;;;;;;3.07;2.77;;;10.50;90.00;;;;;;5134554;27;20438;-81
2021/06/01 03:32:36;;;;;;;3.20;2.87;;;10.40;90.30;;;;;;5133916;27;20446;-81
2021/06/01 03:35:03;;;;;;;3.17;3.00;;;10.40;90.50;;;;;;5134608;27;20438;-81
2021/06/01 03:37:30;;;;;;;3.90;3.50;;;10.40;91.20;;;;;;5134576;27;20442;-81
2021/06/01 03:39:56;;;;;;;3.00;2.80;;;10.40;91.20;;;;;;5134444;27;20446;-81
2021/06/01 03:42:22;;;;;;;3.30;3.00;;;10.50;91.80;;;;;;5134132;27;20952;-81
2021/06/01 03:44:49;;;;;;;3.27;3.00;;;10.50;92.00;;;;;;5134459;27;20442;-81
2021/06/01 03:47:16;;;;;;;4.83;3.50;;;10.50;92.10;;;;;;5134393;27;20445;-81
2021/06/01 03:49:42;;;;;;;3.23;3.03;;;10.50;92.60;;;;;;5134417;27;20450;-81
2021/06/01 03:52:09;;;;;;;3.13;2.93;;;10.50;92.80;;;;;;5134297;27;20462;-81
2021/06/01 03:54:35;;;;;;;3.10;2.70;;;10.50;93.10;;;;;;5134284;27;20843;-81
2021/06/01 03:57:02;;;;;;;3.40;3.10;;;10.50;93.60;;;;;;5134383;27;20441;-81
2021/06/01 03:59:28;;;;;;;2.90;2.70;;;10.50;94.00;;;;;;5134303;27;20453;-81
2021/06/01 04:01:56;;;;;;;2.90;2.70;;;10.60;94.60;;;;;;5134217;27;20508;-81
2021/06/01 04:04:22;;;;;;;3.10;2.90;;;10.70;95.10;;;;;;5134259;27;20438;-81
2021/06/01 04:06:48;;;;;;;3.17;2.97;;;10.70;95.90;;;;;;5134261;27;20442;-81
2021/06/01 04:09:14;;;;;;;4.30;3.90;;;10.70;96.50;;;;;;5133902;27;20936;-81
2021/06/01 04:11:41;;;;;;;3.77;3.47;;;10.70;96.80;;;;;;5134151;27;20523;-81
2021/06/01 04:14:07;;;;;;;3.43;3.23;;;10.70;97.10;;;;;;5134241;27;20473;-81
2021/06/01 04:16:33;;;;;;;3.77;3.43;;;10.80;98.10;;;;;;5134391;27;20453;-81
2021/06/01 04:19:01;;;;;;;3.20;3.00;;;10.70;98.80;;;;;;5133812;27;20940;-81
2021/06/01 04:21:27;;;;;;;3.10;2.80;;;10.70;98.90;;;;;;5134307;27;20462;-81
2021/06/01 04:23:53;;;;;;;3.50;3.20;;;10.70;99.20;;;;;;5134301;27;20438;-81
2021/06/01 04:26:19;;;;;;;4.60;3.23;;;10.70;99.50;;;;;;5134051;27;20492;-81
2021/06/01 04:28:46;;;;;;;3.50;3.17;;;10.70;99.90;;;;;;5133521;27;21018;-82
2021/06/01 04:31:12;;;;;;;4.00;3.30;;;10.80;99.90;;;;;;5134203;27;20496;-81
2021/06/01 04:33:38;;;;;;;4.00;3.70;;;10.80;99.90;;;;;;5133920;27;20549;-81
2021/06/01 04:36:06;;;;;;;3.13;2.87;;;10.90;99.90;;;;;;5133972;27;20448;-81
2021/06/01 04:38:33;;;;;;;4.30;3.17;;;10.90;99.90;;;;;;5133967;27;20446;-81
2021/06/01 04:40:59;;;;;;;4.17;3.80;;;10.90;99.90;;;;;;5133802;27;20458;-81
2021/06/01 04:43:25;;;;;;;3.73;3.43;;;10.90;99.90;;;;;;5135600;27;20445;-81
2021/06/01 04:45:51;;;;;;;3.77;3.47;;;10.90;99.90;;;;;;5137425;27;20949;-81
2021/06/01 04:48:17;;;;;;;3.40;3.10;;;11.00;99.90;;;;;;5137687;27;20506;-82
2021/06/01 04:50:43;;;;;;;3.63;3.17;;;11.00;99.90;;;;;;5137261;27;20473;-81
2021/06/01 04:53:11;;;;;;;3.80;3.20;;;11.10;99.90;;;;;;5137506;27;20478;-81
2021/06/01 04:55:37;;;;;;;4.17;3.57;;;11.10;99.90;;;;;;5137556;27;20783;-77
2021/06/01 04:58:03;;;;;;;4.17;3.77;;;11.20;99.90;;;;;;5137489;27;20801;-77
2021/06/01 05:00:30;;;;;;;4.50;3.80;;;11.30;99.90;;;;;;5137401;27;20465;-77
2021/06/01 05:02:56;;;;;;;4.83;3.67;;;11.30;99.90;;;;;;5137383;27;20457;-77
2021/06/01 05:05:22;;;;;;;4.90;4.00;;;11.40;99.90;;;;;;5137350;27;20438;-78
2021/06/01 05:07:49;;;;;;;3.80;3.50;;;11.40;99.90;;;;;;5137311;27;20454;-77
2021/06/01 05:10:16;;;;;;;4.67;4.27;;;11.40;99.90;;;;;;5137168;27;20539;-77
2021/06/01 05:12:42;;;;;;;5.00;4.13;;;11.50;99.90;;;;;;5137169;27;20451;-77
2021/06/01 05:15:10;;;;;;;4.43;4.03;;;11.50;99.90;;;;;;5137153;27;20446;-77
2021/06/01 05:17:36;;;;;;;4.40;4.00;;;11.60;99.90;;;;;;5137099;27;20438;-77
2021/06/01 05:20:03;;;;;;;4.27;3.97;;;11.60;99.90;;;;;;5136991;27;20461;-77
2021/06/01 05:22:30;;;;;;;4.20;3.90;;;11.70;99.90;;;;;;5136710;27;20453;-77
2021/06/01 05:24:56;;;;;;;4.50;4.10;;;11.70;99.90;;;;;;5136851;27;20471;-77
2021/06/01 05:27:24;;;;;;;3.70;3.50;;;11.90;99.90;;;;;;5136694;27;20473;-77
2021/06/01 05:29:53;;;;;;;4.40;3.60;;;12.10;99.90;;;;;;5136888;27;20445;-77
2021/06/01 05:35:01;;;;;;;3.60;3.30;;;12.50;99.90;;;;;;5113513;27;20894;-78
2021/06/01 05:37:29;;;;;;;4.10;3.67;;;12.80;98.60;;;;;;5136729;27;20490;-77
2021/06/01 05:39:56;;;;;;;3.50;3.20;;;13.00;98.10;;;;;;5136607;27;20442;-77
2021/06/01 05:42:23;;;;;;;4.80;4.30;;;13.20;97.20;;;;;;5136662;27;20446;-78
2021/06/01 05:44:49;;;;;;;4.20;3.90;;;13.40;98.30;;;;;;5136564;27;20454;-77
2021/06/01 05:47:16;;;;;;;5.47;4.97;;;13.50;98.40;;;;;;5136806;27;20438;-77
2021/06/01 05:49:42;;;;;;;4.10;3.67;;;13.60;98.60;;;;;;5136453;27;20558;-78
2021/06/01 05:52:09;;;;;;;4.00;3.63;;;13.70;99.50;;;;;;5136430;27;20797;-77
2021/06/01 05:54:35;;;;;;;4.50;4.10;;;13.80;99.10;;;;;;5135457;27;21109;-77
2021/06/01 05:57:01;;;;;;;3.60;3.40;;;14.00;98.10;;;;;;5136348;27;20454;-78
2021/06/01 05:59:29;;;;;;;4.60;3.23;;;14.20;97.80;;;;;;5135983;27;20445;-77
2021/06/01 06:01:55;;;;;;;3.30;3.10;;;14.40;97.40;;;;;;5136316;27;20474;-77
2021/06/01 06:04:21;;;;;;;2.87;2.67;;;14.80;95.90;;;;;;5136228;27;20435;-82
2021/06/01 06:06:47;;;;;;;3.30;3.03;;;15.00;96.10;;;;;;5136241;27;20814;-81
2021/06/01 06:09:13;;;;;;;3.50;3.20;;;15.40;93.80;;;;;;5136132;27;20446;-81
2021/06/01 06:11:40;;;;;;;3.00;2.80;;;15.80;93.10;;;;;;5136027;27;20473;-81
2021/06/01 06:14:06;;;;;;;2.47;2.27;;;16.30;90.90;;;;;;5135956;27;20466;-81
2021/06/01 06:16:40;;;;;;;3.00;2.80;;;16.90;86.40;;;;;;5135993;27;20495;-82
2021/06/01 06:19:06;;;;;;;2.43;2.23;;;17.30;86.00;;;;;;5135967;27;20426;-79
2021/06/01 06:21:33;;;;;;;3.60;2.73;;;17.90;82.00;;;;;;5135881;27;20523;-77
2021/06/01 06:23:59;;;;;;;3.73;2.47;;;18.60;76.10;;;;;;5135821;27;20801;-79
2021/06/01 06:26:25;;;;;;;2.63;2.40;;;19.20;72.60;;;;;;5135735;27;20449;-77
2021/06/01 06:28:51;;;;;;;2.92;2.72;;;20.00;68.60;;;;;;5135323;27;20235;-77
2021/06/01 06:31:18;;;;;;;2.63;2.42;;;20.90;65.40;;;;;;5135849;27;20261;-77
2021/06/01 06:33:46;;;;;;;3.78;2.20;;;21.80;63.10;;;;;;5135599;27;20277;-77
2021/06/01 06:36:12;;;;;;;2.58;2.40;;;22.10;58.90;;;;;;5135283;27;20663;-78
2021/06/01 06:38:39;;;;;;;2.90;2.70;;;22.40;57.20;;;;;;5135555;27;20221;-77
2021/06/01 06:41:08;;;;;;;2.30;2.20;;;23.00;56.70;;;;;;5135471;27;20223;-77
2021/06/01 06:43:38;;;;;;;1.90;1.90;;;23.20;54.50;;;;;;5135497;27;20296;-78
2021/06/01 06:46:07;;;;;;;2.20;2.10;;;23.80;52.10;;;;;;5135413;27;20196;-78
2021/06/01 06:48:34;;;;;;;2.17;2.03;;;24.70;49.40;;;;;;5135621;27;20211;-78
2021/06/01 06:51:12;;;;;;;2.42;2.33;;;25.30;48.80;;;;;;5135249;27;20221;-78
2021/06/01 06:53:40;;;;;;;1.92;1.83;;;25.60;47.90;;;;;;5135253;27;20235;-81
2021/06/01 06:56:06;;;;;;;2.60;2.40;;;25.20;46.50;;;;;;5135180;27;20195;-80
2021/06/01 06:58:33;;;;;;;2.08;1.98;;;25.30;46.30;;;;;;5135241;27;20250;-80
2021/06/01 07:00:59;;;;;;;2.30;2.10;;;25.60;45.90;;;;;;5135038;27;20704;-81
2021/06/01 07:03:25;;;;;;;2.53;2.42;;;25.90;44.30;;;;;;5135645;27;20210;-81
2021/06/01 07:05:51;;;;;;;2.58;2.38;;;26.70;43.00;;;;;;5134684;27;20207;-80
2021/06/01 07:08:19;;;;;;;2.05;1.95;;;26.60;42.50;;;;;;5134401;27;20210;-82
2021/06/01 07:10:45;;;;;;;1.92;1.83;;;26.80;41.60;;;;;;5134964;27;20747;-82
2021/06/01 07:13:15;;;;;;;2.60;2.40;;;27.10;41.60;;;;;;5135118;27;20200;-81
2021/06/01 07:15:47;;;;;;;2.13;2.03;;;27.80;40.80;;;;;;5135034;27;20632;-82
2021/06/01 07:18:14;;;;;;;4.32;2.80;;;28.70;39.10;;;;;;5135031;27;20185;-82
2021/06/01 07:20:40;;;;;;;2.25;2.15;;;29.10;38.00;;;;;;5135000;27;20215;-83
2021/06/01 07:23:06;;;;;;;2.03;1.92;;;28.70;37.80;;;;;;5134895;27;20207;-84
2021/06/01 07:25:34;;;;;;;3.05;2.28;;;29.10;37.80;;;;;;5134424;27;20553;-80
2021/06/01 07:28:01;;;;;;;2.25;2.15;;;29.60;37.00;;;;;;5134369;27;20772;-79
2021/06/01 07:30:28;;;;;;;2.22;2.13;;;30.10;37.00;;;;;;5134322;27;20317;-79
2021/06/01 07:32:54;;;;;;;2.00;1.90;;;31.10;35.50;;;;;;5134678;27;20195;-80
2021/06/01 07:35:22;;;;;;;2.20;2.10;;;31.90;34.50;;;;;;5134605;27;20183;-80
2021/06/01 07:37:48;;;;;;;2.33;2.22;;;32.80;33.10;;;;;;5134539;27;20191;-80
2021/06/01 07:40:14;;;;;;;2.03;2.03;;;33.30;32.40;;;;;;5134203;27;20285;-80
2021/06/01 07:42:42;;;;;;;2.47;2.25;;;33.70;30.40;;;;;;5134187;27;20556;-80
2021/06/01 07:45:10;;;;;;;1.90;1.80;;;33.80;30.60;;;;;;5133970;27;20188;-80
2021/06/01 07:47:36;;;;;;;2.33;2.22;;;33.50;30.20;;;;;;5134220;27;20189;-78
2021/06/01 07:50:03;;;;;;;2.33;2.22;;;33.10;30.70;;;;;;5134281;27;20184;-80
2021/06/01 07:52:29;;;;;;;2.47;2.38;;;33.80;30.00;;;;;;5134244;27;20181;-80
2021/06/01 07:54:56;;;;;;;2.67;1.92;;;34.20;30.00;;;;;;5134232;27;20588;-80
2021/06/01 07:57:22;;;;;;;4.10;2.58;;;34.30;29.20;;;;;;5134365;27;20561;-80
2021/06/01 07:59:50;;;;;;;2.03;1.92;;;34.90;29.60;;;;;;5134402;27;20252;-80
2021/06/01 08:02:16;;;;;;;2.33;2.22;;;35.90;28.80;;;;;;5134320;27;20192;-80
2021/06/01 08:04:43;;;;;;;1.88;1.77;;;36.10;28.40;;;;;;5134278;27;20246;-80
2021/06/01 08:07:11;;;;;;;2.17;2.05;;;36.70;27.10;;;;;;5134215;27;20225;-80
2021/06/01 08:09:37;;;;;;;2.45;2.35;;;36.40;27.40;;;;;;5134211;27;20199;-79
2021/06/01 08:12:05;;;;;;;2.17;2.03;;;36.80;27.00;;;;;;5134309;27;20714;-80
2021/06/01 08:14:31;;;;;;;1.77;1.77;;;36.60;27.70;;;;;;5134364;27;20266;-79
2021/06/01 08:17:00;;;;;;;2.13;2.03;;;36.30;26.60;;;;;;5134222;27;20196;-81
2021/06/01 08:19:29;;;;;;;1.77;1.67;;;34.90;26.10;;;;;;5137931;27;20200;-80
2021/06/01 08:21:58;;;;;;;1.70;1.60;;;34.00;27.20;;;;;;5138003;27;20260;-79
2021/06/01 08:24:25;;;;;;;2.00;1.90;;;33.70;28.20;;;;;;5138422;27;20197;-80
2021/06/01 08:26:52;;;;;;;2.55;2.45;;;34.10;27.80;;;;;;5137798;27;20204;-81
2021/06/01 08:29:18;;;;;;;2.28;2.17;;;34.10;27.20;;;;;;5137975;27;20198;-80
2021/06/01 08:31:45;;;;;;;2.13;2.00;;;34.20;27.00;;;;;;5137964;27;20243;-80
2021/06/01 08:34:13;;;;;;;2.08;1.98;;;33.80;26.70;;;;;;5137925;27;20213;-80
2021/06/01 08:36:40;;;;;;;2.75;2.17;;;33.30;27.30;;;;;;5137850;27;20257;-79
2021/06/01 08:39:07;;;;;;;2.05;1.95;;;32.50;28.70;;;;;;5137632;27;20552;-81
2021/06/01 08:41:35;;;;;;;2.25;2.03;;;32.00;29.20;;;;;;5137620;27;20277;-79
2021/06/01 08:44:03;;;;;;;2.03;1.92;;;31.90;28.80;;;;;;5137910;27;20203;-78
2021/06/01 08:46:29;;;;;;;2.00;1.90;;;31.70;28.90;;;;;;5137743;27;20204;-79
2021/06/01 08:48:56;;;;;;;2.15;2.05;;;31.40;29.20;;;;;;5137173;27;20676;-81
2021/06/01 08:51:26;;;;;;;2.65;2.47;;;30.90;30.00;;;;;;5137304;27;20222;-79
2021/06/01 08:53:54;;;;;;;2.10;2.00;;;30.40;30.40;;;;;;5137100;27;20763;-80
2021/06/01 08:56:21;;;;;;;1.73;1.63;;;30.00;31.60;;;;;;5137183;27;20736;-80
2021/06/01 08:58:49;;;;;;;2.10;1.98;;;29.20;31.30;;;;;;5137421;27;20204;-79
2021/06/01 09:01:16;;;;;;;2.20;2.10;;;28.60;33.30;;;;;;5137278;27;20222;-79
2021/06/01 09:03:44;;;;;;;2.28;2.00;;;28.10;33.30;;;;;;5137178;27;20211;-80
2021/06/01 09:06:20;;;;;;;3.05;1.98;;;27.60;34.20;;;;;;5137313;27;20203;-79
2021/06/01 09:11:48;;;;;;;2.20;2.10;;;25.90;33.90;;;;;;5126075;27;20238;-79
2021/06/01 09:21:03;;;;;;;2.47;2.28;;;25.10;34.40;;;;;;5137046;27;20195;-78
2021/06/01 09:22:58;;;;;;;2.30;2.20;;;25.00;35.50;;;;;;5136552;27;20567;-79
2021/06/01 09:25:34;;;;;;;1.77;1.63;;;24.80;35.20;;;;;;5136528;27;20689;-79
2021/06/01 09:28:01;;;;;;;1.83;1.73;;;24.70;36.20;;;;;;5136556;27;20237;-79
2021/06/01 09:30:39;;;;;;;1.92;1.80;;;24.70;36.60;;;;;;5135693;27;20224;-79
2021/06/01 09:33:09;;;;;;;1.83;1.73;;;24.60;35.50;;;;;;5136867;27;20279;-78
2021/06/01 09:35:48;;;;;;;2.30;2.13;;;24.90;35.10;;;;;;5136779;27;20191;-79
2021/06/01 09:38:15;;;;;;;4.20;2.03;;;24.90;34.90;;;;;;5136580;27;20635;-79
2021/06/01 09:40:43;;;;;;;2.13;1.97;;;24.60;33.80;;;;;;5136629;27;20514;-79
2021/06/01 09:43:13;;;;;;;1.80;1.70;;;24.40;35.20;;;;;;5136577;27;20434;-80
2021/06/01 09:45:39;;;;;;;2.23;2.03;;;24.30;35.40;;;;;;5136226;27;20434;-80
2021/06/01 09:48:08;;;;;;;2.10;1.90;;;24.00;35.30;;;;;;5136483;27;20426;-80
2021/06/01 09:50:39;;;;;;;2.10;2.00;;;23.90;35.90;;;;;;5136193;27;20473;-79
2021/06/01 09:53:09;;;;;;;3.23;1.77;;;23.90;37.20;;;;;;5136410;27;20452;-80
2021/06/01 09:55:44;;;;;;;1.70;1.60;;;23.90;36.80;;;;;;5136235;27;20908;-79
2021/06/01 09:58:13;;;;;;;1.90;1.80;;;24.10;36.40;;;;;;5136494;27;20434;-81
2021/06/01 10:00:41;;;;;;;2.13;2.03;;;24.10;36.70;;;;;;5135380;27;20475;-79
2021/06/01 10:03:13;;;;;;;1.80;1.70;;;24.20;35.80;;;;;;5136195;27;20897;-79
2021/06/01 10:05:41;;;;;;;2.17;2.07;;;24.20;35.50;;;;;;5136387;27;20434;-79
2021/06/01 10:08:14;;;;;;;1.83;1.73;;;24.30;34.10;;;;;;5136324;27;20482;-79
2021/06/01 10:10:48;;;;;;;1.83;1.73;;;24.40;35.20;;;;;;5136299;27;20469;-79
2021/06/01 10:13:14;;;;;;;2.00;1.90;;;24.40;36.10;;;;;;5136054;27;20453;-79
2021/06/01 10:15:40;;;;;;;2.50;2.40;;;24.60;36.40;;;;;;5135940;27;20421;-78
2021/06/01 10:18:09;;;;;;;4.33;1.93;;;24.80;35.70;;;;;;5135941;27;20422;-83
2021/06/01 10:20:39;;;;;;;2.57;2.37;;;24.80;36.10;;;;;;5135484;27;20973;-80
2021/06/01 10:23:07;;;;;;;1.80;1.70;;;24.50;34.90;;;;;;5135792;27;20478;-78
2021/06/01 10:25:34;;;;;;;2.13;2.03;;;24.30;36.70;;;;;;5135417;27;20901;-79
2021/06/01 10:28:04;;;;;;;2.00;1.90;;;24.00;36.40;;;;;;5135463;27;20485;-80
2021/06/01 10:30:33;;;;;;;2.30;2.20;;;24.00;37.40;;;;;;5135505;27;20828;-80
2021/06/01 10:33:01;;;;;;;3.90;2.10;;;24.00;37.40;;;;;;5135540;27;20456;-80
2021/06/01 10:35:32;;;;;;;2.30;2.20;;;24.10;37.40;;;;;;5135088;27;20968;-78
2021/06/01 10:44:20;;;;;;;4.20;2.13;;;23.80;36.50;;;;;;5135634;27;20531;-79
2021/06/01 10:52:31;;;;;;;2.33;2.17;;;23.30;37.30;;;;;;5135140;27;20474;-79
2021/06/01 10:55:06;;;;;;;2.33;2.23;;;23.40;37.10;;;;;;5135123;27;20498;-80
2021/06/01 10:57:54;;;;;;;2.27;2.10;;;23.50;36.70;;;;;;5135069;27;20438;-79
2021/06/01 11:03:08;;;;;;;2.40;2.13;;;25.00;36.50;;;;;;5135526;27;20452;-79
2021/06/01 11:06:04;;;;;;;1.97;1.87;;;26.00;34.70;;;;;;5135072;27;20176;-79
2021/06/01 11:08:43;;;;;;;2.63;2.05;;;26.40;33.70;;;;;;5099277;27;20252;-80
2021/06/01 11:11:28;;;;;;;1.85;1.75;;;26.30;33.90;;;;;;5134428;27;20718;-79
2021/06/01 11:13:55;;;;;;;1.88;1.77;;;25.90;34.40;;;;;;5134731;27;20572;-79
2021/06/01 11:16:24;;;;;;;2.15;2.05;;;25.50;35.10;;;;;;5134786;27;20253;-78
2021/06/01 11:18:59;;;;;;;2.25;2.15;;;24.90;35.00;;;;;;5134724;27;20180;-79
2021/06/01 11:21:32;;;;;;;2.27;2.17;;;24.60;36.10;;;;;;5134821;27;20223;-85
2021/06/01 11:24:34;;;;;;;2.00;1.90;;;24.30;35.60;;;;;;5134519;27;20831;-79
2021/06/01 11:32:50;;;;;;;2.20;2.03;;;23.80;36.10;;;;;;5134644;27;20405;-79
2021/06/01 11:35:23;;;;;;;1.80;1.70;;;23.50;36.00;;;;;;5134396;27;20522;-81
2021/06/01 11:37:56;;;;;;;2.03;1.93;;;23.30;37.00;;;;;;5134659;27;20430;-79
2021/06/01 11:40:26;;;;;;;1.90;1.80;;;23.20;36.60;;;;;;5134312;27;20473;-78
2021/06/01 11:43:08;;;;;;;2.27;2.10;;;23.20;37.00;;;;;;5134379;27;20465;-78
2021/06/01 11:45:46;;;;;;;1.77;1.60;;;23.20;37.40;;;;;;5134301;27;20759;-79
2021/06/01 11:48:28;;;;;;;5.93;1.90;;;23.20;36.30;;;;;;5134393;27;20429;-78
2021/06/01 11:51:15;;;;;;;1.73;1.63;;;23.20;35.50;;;;;;5134256;27;20803;-80
2021/06/01 11:53:49;;;;;;;1.93;1.83;;;23.10;35.90;;;;;;5133427;27;20847;-78
2021/06/01 11:56:19;;;;;;;3.90;2.03;;;23.10;36.70;;;;;;5133998;27;20870;-78
2021/06/01 12:02:02;;;;;;;1.77;1.67;;;22.90;37.70;;;;;;5134226;28;20441;-79
2021/06/01 12:04:40;;;;;;;5.00;2.03;;;22.90;37.90;;;;;;5134032;27;20441;-79
2021/06/01 12:12:44;;;;;;;1.97;1.87;;;22.60;39.30;;;;;;5134176;28;20479;-78
2021/06/01 12:18:01;;;;;;;2.13;2.03;;;22.70;37.40;;;;;;5134057;28;20427;-79
2021/06/01 12:20:29;;;;;;;2.13;2.03;;;22.70;37.70;;;;;;5133999;27;20461;-78
2021/06/01 12:22:56;;;;;;;1.80;1.70;;;22.60;38.00;;;;;;5133750;27;20978;-79
2021/06/01 12:25:22;;;;;;;2.20;2.10;;;22.60;37.40;;;;;;5133942;27;20502;-78
2021/06/01 12:28:00;;;;;;;2.40;2.30;;;22.40;38.60;;;;;;5133589;27;20474;-79
2021/06/01 12:33:12;;;;;;;2.50;2.00;;;22.30;39.60;;;;;;5134141;28;20452;-79
2021/06/01 12:35:52;;;;;;;2.20;2.10;;;22.30;39.20;;;;;;5133466;27;21061;-79
2021/06/01 12:43:58;;;;;;;2.77;2.50;;;22.20;39.30;;;;;;5134150;28;20401;-79
2021/06/01 12:46:36;;;;;;;2.23;2.13;;;22.00;40.20;;;;;;5133516;27;20913;-79
2021/06/01 13:09:29;;;;;;;2.20;2.00;;;21.80;41.80;;;;;;5136792;27;20811;-80
2021/06/01 13:14:52;;;;;;;3.33;3.13;;;21.70;41.10;;;;;;5134223;27;20473;-81
2021/06/01 13:20:18;;;;;;;2.80;2.60;;;21.70;43.60;;;;;;5136603;27;20410;-81
2021/06/01 13:22:57;;;;;;;2.90;2.70;;;21.70;42.60;;;;;;5136771;27;20932;-81
2021/06/01 13:31:22;;;;;;;2.60;2.43;;;21.60;43.00;;;;;;5102120;27;20510;-80
2021/06/01 13:36:43;;;;;;;2.77;2.50;;;21.70;43.40;;;;;;5136613;27;20467;-79
2021/06/01 13:39:30;;;;;;;2.80;2.60;;;21.70;42.90;;;;;;5136554;27;20433;-81
2021/06/01 13:47:26;;;;;;;3.30;2.57;;;21.50;42.80;;;;;;5136455;27;20592;-81
2021/06/01 13:49:55;;;;;;;2.70;2.60;;;21.40;43.70;;;;;;5135898;27;20952;-81
2021/06/01 13:55:22;;;;;;;2.80;2.60;;;21.50;42.40;;;;;;5092931;28;20538;-82
2021/06/01 13:58:17;;;;;;;2.20;2.10;;;21.50;42.80;;;;;;5126690;27;20463;-81
2021/06/01 14:00:50;;;;;;;2.40;2.20;;;21.50;42.50;;;;;;5136191;27;20473;-82
2021/06/01 14:20:14;;;;;;;3.53;2.77;;;21.50;42.10;;;;;;5135511;27;20975;-81
2021/06/01 14:29:12;;;;;;;2.80;2.60;;;21.60;41.60;;;;;;5114110;27;20469;-79
2021/06/01 14:31:40;;;;;;;2.30;2.10;;;21.60;41.60;;;;;;5134984;27;20454;-79
2021/06/01 14:37:16;;;;;;;2.60;2.50;;;21.50;42.60;;;;;;5135665;27;20394;-80
2021/06/01 15:29:56;;;;;;;2.93;2.00;;;21.50;40.80;;;;;;5053264;28;20425;-83
2021/06/01 15:32:30;;;;;;;2.70;2.50;;;21.50;41.20;;;;;;5053517;28;20441;-84
2021/06/01 15:48:55;;;;;;;2.20;2.00;;;21.40;42.00;;;;;;5053223;28;20540;-83
2021/06/01 16:11:32;;;;;;;2.67;2.57;;;21.60;42.70;;;;;;5053193;28;20440;-83
2021/06/01 16:14:05;;;;;;;2.67;2.50;;;21.60;43.70;;;;;;5053272;28;20476;-81
2021/06/01 16:22:14;;;;;;;4.43;2.73;;;21.00;48.20;;;;;;5052756;28;20883;-81
2021/06/01 16:30:19;;;;;;;2.83;2.60;;;20.70;49.90;;;;;;5052925;28;20919;-79
2021/06/01 16:43:57;;;;;;;2.20;2.10;;;20.80;47.10;;;;;;5056554;28;20418;-78
2021/06/01 17:03:15;;;;;;;2.07;1.97;;;20.70;45.80;;;;;;5056085;28;20787;-79
2021/06/01 17:05:45;;;;;;;2.63;2.43;;;20.60;46.50;;;;;;5056368;28;20433;-80
2021/06/01 17:08:39;;;;;;;1.80;1.70;;;20.70;45.20;;;;;;5057951;28;20458;-79